createdAt,value
2023-03-07T00:01:08.505Z,5.30
2023-03-07T00:03:36.573Z,5.30
2023-03-07T00:06:05.255Z,5.30
2023-03-07T00:08:32.501Z,5.20
2023-03-07T00:11:03.969Z,5.20
2023-03-07T00:13:31.862Z,5.10
2023-03-07T00:16:11.985Z,5.00
2023-03-07T00:18:38.727Z,5.00
2023-03-07T00:21:07.994Z,5.00
2023-03-07T00:23:36.034Z,4.90
2023-03-07T00:26:08.442Z,4.90
2023-03-07T00:28:35.391Z,4.90
2023-03-07T00:31:04.427Z,4.90
2023-03-07T00:33:31.190Z,4.90
2023-03-07T00:36:00.281Z,4.90
2023-03-07T00:38:28.719Z,4.90
2023-03-07T00:41:04.794Z,4.90
2023-03-07T00:43:31.796Z,4.90
2023-03-07T00:45:58.584Z,4.90
2023-03-07T00:48:26.112Z,4.90
2023-03-07T00:50:53.060Z,4.90
2023-03-07T00:53:20.190Z,5.00
2023-03-07T00:56:05.610Z,5.10
2023-03-07T00:58:34.863Z,5.10
2023-03-07T01:01:02.695Z,5.20
2023-03-07T01:03:29.422Z,5.20
2023-03-07T01:05:56.037Z,5.10
2023-03-07T01:08:23.339Z,5.10
2023-03-07T01:10:50.434Z,5.00
2023-03-07T01:13:18.855Z,5.00
2023-03-07T01:15:45.609Z,5.00
2023-03-07T01:18:12.266Z,5.00
2023-03-07T01:20:40.684Z,5.10
2023-03-07T01:23:07.827Z,5.10
2023-03-07T01:25:42.038Z,5.10
2023-03-07T01:28:12.702Z,5.10
2023-03-07T01:30:39.244Z,5.10
2023-03-07T01:33:05.827Z,5.10
2023-03-07T01:35:38.330Z,5.10
2023-03-07T01:38:05.494Z,5.00
2023-03-07T01:40:32.328Z,5.00
2023-03-07T01:43:24.126Z,5.00
2023-03-07T01:45:50.821Z,5.00
2023-03-07T01:48:17.734Z,5.00
2023-03-07T01:50:44.789Z,5.00
2023-03-07T01:53:11.818Z,4.90
2023-03-07T01:55:38.720Z,4.80
2023-03-07T01:58:12.916Z,4.80
2023-03-07T02:00:41.285Z,4.80
2023-03-07T02:03:10.660Z,4.80
2023-03-07T02:05:49.918Z,4.80
2023-03-07T02:08:18.390Z,4.80
2023-03-07T02:10:45.390Z,4.80
2023-03-07T02:13:12.111Z,4.80
2023-03-07T02:15:39.506Z,4.70
2023-03-07T02:18:07.357Z,4.70
2023-03-07T02:20:45.190Z,4.70
2023-03-07T02:23:23.740Z,4.70
2023-03-07T02:26:07.770Z,4.70
2023-03-07T02:28:35.219Z,4.70
2023-03-07T02:31:09.035Z,4.70
2023-03-07T02:33:35.711Z,4.70
2023-03-07T02:36:09.113Z,4.70
2023-03-07T02:38:39.917Z,4.70
2023-03-07T02:41:08.736Z,4.80
2023-03-07T02:43:35.244Z,4.70
2023-03-07T02:46:01.829Z,4.70
2023-03-07T02:48:28.562Z,4.70
2023-03-07T02:50:55.085Z,4.70
2023-03-07T02:53:21.971Z,4.70
2023-03-07T02:55:48.566Z,4.70
2023-03-07T02:58:15.156Z,4.70
2023-03-07T03:00:41.978Z,4.70
2023-03-07T03:03:08.631Z,4.70
2023-03-07T03:05:35.152Z,4.70
2023-03-07T03:08:01.755Z,4.70
2023-03-07T03:10:28.309Z,4.70
2023-03-07T03:12:55.312Z,4.70
2023-03-07T03:15:21.810Z,4.60
2023-03-07T03:17:48.405Z,4.60
2023-03-07T03:20:16.808Z,4.60
2023-03-07T03:22:43.451Z,4.60
2023-03-07T03:25:11.686Z,4.50
2023-03-07T03:27:38.806Z,4.60
2023-03-07T03:30:07.279Z,4.60
2023-03-07T03:32:33.906Z,4.60
2023-03-07T03:35:00.521Z,4.60
2023-03-07T03:37:27.124Z,4.60
2023-03-07T03:39:57.006Z,4.60
2023-03-07T03:42:23.771Z,4.50
2023-03-07T03:44:50.505Z,4.50
2023-03-07T03:47:18.025Z,4.60
2023-03-07T03:49:44.672Z,4.60
2023-03-07T03:52:11.261Z,4.60
2023-03-07T03:54:37.877Z,4.50
2023-03-07T03:57:04.427Z,4.50
2023-03-07T03:59:31.076Z,4.50
2023-03-07T04:01:57.773Z,4.50
2023-03-07T04:04:24.397Z,4.60
2023-03-07T04:06:50.967Z,4.60
2023-03-07T04:09:17.506Z,4.50
2023-03-07T04:11:44.031Z,4.50
2023-03-07T04:14:10.685Z,4.50
2023-03-07T04:16:37.289Z,4.50
2023-03-07T04:19:03.907Z,4.50
2023-03-07T04:21:30.472Z,4.50
2023-03-07T04:23:58.254Z,4.50
2023-03-07T04:26:24.916Z,4.50
2023-03-07T04:28:51.641Z,4.50
2023-03-07T04:31:21.124Z,4.50
2023-03-07T04:33:48.265Z,4.50
2023-03-07T04:36:18.228Z,4.40
2023-03-07T04:38:47.414Z,4.40
2023-03-07T04:41:19.145Z,4.50
2023-03-07T04:43:46.186Z,4.40
2023-03-07T04:46:15.095Z,4.50
2023-03-07T04:48:42.036Z,4.40
2023-03-07T04:51:08.555Z,4.40
2023-03-07T04:53:35.099Z,4.40
2023-03-07T04:56:04.180Z,4.40
2023-03-07T04:58:31.946Z,4.40
2023-03-07T05:01:00.386Z,4.40
2023-03-07T05:03:27.759Z,4.40
2023-03-07T05:05:54.983Z,4.40
2023-03-07T05:08:22.916Z,4.50
2023-03-07T05:10:49.516Z,4.50
2023-03-07T05:13:16.115Z,4.50
2023-03-07T05:15:42.792Z,4.40
2023-03-07T05:18:09.371Z,4.40
2023-03-07T05:20:36.035Z,4.40
2023-03-07T05:23:02.543Z,4.40
2023-03-07T05:25:29.143Z,4.40
2023-03-07T05:27:55.718Z,4.40
2023-03-07T05:30:22.294Z,4.40
2023-03-07T05:32:48.929Z,4.40
2023-03-07T05:35:16.095Z,4.40
2023-03-07T05:37:42.833Z,4.40
2023-03-07T05:40:10.799Z,4.30
2023-03-07T05:42:37.398Z,4.40
2023-03-07T05:45:05.591Z,4.40
2023-03-07T05:47:32.457Z,4.40
2023-03-07T05:49:59.022Z,4.40
2023-03-07T05:52:26.119Z,4.40
2023-03-07T05:54:52.638Z,4.40
2023-03-07T05:57:19.138Z,4.40
2023-03-07T05:59:45.690Z,4.40
2023-03-07T06:02:12.214Z,4.40
2023-03-07T06:04:38.793Z,4.50
2023-03-07T06:07:05.466Z,4.60
2023-03-07T06:09:32.015Z,4.60
2023-03-07T06:11:58.583Z,4.70
2023-03-07T06:14:25.606Z,4.70
2023-03-07T06:16:52.161Z,4.70
2023-03-07T06:19:18.762Z,4.60
2023-03-07T06:21:45.332Z,4.50
2023-03-07T06:24:11.869Z,4.60
2023-03-07T06:26:38.435Z,4.60
2023-03-07T06:29:05.033Z,4.60
2023-03-07T06:31:31.764Z,4.60
2023-03-07T06:33:58.359Z,4.70
2023-03-07T06:36:24.931Z,4.70
2023-03-07T06:38:51.474Z,4.70
2023-03-07T06:41:18.173Z,4.70
2023-03-07T06:43:44.716Z,4.60
2023-03-07T06:46:11.473Z,4.60
2023-03-07T06:48:38.005Z,4.60
2023-03-07T06:51:10.624Z,4.70
2023-03-07T06:53:37.233Z,4.70
2023-03-07T06:56:04.355Z,4.80
2023-03-07T06:58:30.882Z,4.70
2023-03-07T07:00:57.411Z,4.70
2023-03-07T07:03:24.484Z,4.70
2023-03-07T07:05:51.032Z,4.70
2023-03-07T07:08:17.918Z,4.80
2023-03-07T07:10:44.563Z,4.80
2023-03-07T07:13:12.466Z,4.80
2023-03-07T07:15:39.085Z,4.80
2023-03-07T07:18:05.803Z,4.80
2023-03-07T07:20:32.417Z,4.90
2023-03-07T07:22:58.976Z,4.90
2023-03-07T07:25:25.531Z,4.90
2023-03-07T07:27:52.040Z,5.00
2023-03-07T07:30:18.697Z,4.90
2023-03-07T07:32:45.306Z,4.90
2023-03-07T07:35:12.061Z,4.90
2023-03-07T07:37:38.704Z,5.00
2023-03-07T07:40:06.650Z,5.10
2023-03-07T07:42:33.286Z,5.20
2023-03-07T07:44:59.852Z,5.30
2023-03-07T07:47:26.562Z,5.40
2023-03-07T07:49:53.116Z,5.40
2023-03-07T07:52:19.640Z,5.50
2023-03-07T07:54:46.175Z,5.50
2023-03-07T07:57:12.730Z,5.60
2023-03-07T07:59:39.250Z,5.50
2023-03-07T08:02:05.838Z,5.60
2023-03-07T08:04:32.445Z,5.50
2023-03-07T08:06:59.141Z,5.50
2023-03-07T08:09:25.707Z,5.60
2023-03-07T08:11:52.235Z,5.60
2023-03-07T08:14:18.765Z,5.80
2023-03-07T08:16:45.327Z,5.80
2023-03-07T08:19:11.874Z,5.80
2023-03-07T08:21:38.456Z,5.80
2023-03-07T08:24:05.250Z,5.70
2023-03-07T08:26:31.865Z,5.70
2023-03-07T08:28:58.878Z,5.70
2023-03-07T08:31:25.543Z,5.80
2023-03-07T08:33:52.650Z,5.90
2023-03-07T08:36:20.115Z,5.90
2023-03-07T08:38:51.561Z,6.00
2023-03-07T08:41:19.560Z,6.20
2023-03-07T08:43:46.099Z,6.20
2023-03-07T08:46:12.913Z,6.20
2023-03-07T08:48:39.642Z,6.20
2023-03-07T08:51:15.626Z,6.10
2023-03-07T08:53:43.347Z,6.20
2023-03-07T08:56:15.616Z,6.30
2023-03-07T08:58:42.807Z,6.50
2023-03-07T09:01:10.169Z,7.10
2023-03-07T09:03:36.892Z,7.40
2023-03-07T09:06:04.332Z,7.70
2023-03-07T09:08:31.197Z,8.30
2023-03-07T09:11:03.452Z,8.80
2023-03-07T09:13:30.134Z,8.80
2023-03-07T09:15:56.710Z,8.80
2023-03-07T09:18:23.331Z,8.90
2023-03-07T09:20:49.899Z,9.40
2023-03-07T09:23:16.605Z,9.50
2023-03-07T09:25:44.288Z,9.40
2023-03-07T09:28:10.877Z,9.40
2023-03-07T09:30:37.992Z,9.10
2023-03-07T09:33:04.537Z,8.90
2023-03-07T09:35:31.226Z,8.70
2023-03-07T09:37:57.880Z,9.00
2023-03-07T09:40:26.793Z,9.00
2023-03-07T09:43:15.018Z,9.10
2023-03-07T09:45:47.081Z,9.10
2023-03-07T09:48:29.057Z,9.20
2023-03-07T09:50:57.257Z,9.90
2023-03-07T09:53:54.515Z,11.60
2023-03-07T09:56:32.777Z,12.90
2023-03-07T09:59:32.643Z,13.60
2023-03-07T10:02:10.819Z,14.30
2023-03-07T10:05:04.290Z,15.00
2023-03-07T10:07:31.186Z,15.50
2023-03-07T10:10:01.416Z,15.70
2023-03-07T10:12:46.136Z,15.90
2023-03-07T10:15:19.362Z,15.90
2023-03-07T10:17:45.969Z,16.00
2023-03-07T10:20:42.477Z,16.20
2023-03-07T10:23:33.190Z,16.20
2023-03-07T10:26:25.330Z,15.80
2023-03-07T10:28:53.064Z,15.80
2023-03-07T10:31:37.604Z,15.80
2023-03-07T10:34:27.334Z,15.70
2023-03-07T10:37:08.758Z,15.60
2023-03-07T10:39:52.259Z,15.50
2023-03-07T10:42:22.595Z,15.00
2023-03-07T10:44:51.013Z,14.70
2023-03-07T10:47:22.891Z,14.30
2023-03-07T10:49:53.430Z,13.90
2023-03-07T10:52:38.814Z,13.30
2023-03-07T10:55:35.385Z,13.00
2023-03-07T10:58:20.617Z,12.50
2023-03-07T11:01:17.880Z,12.20
2023-03-07T11:04:05.128Z,12.20
2023-03-07T11:06:38.897Z,12.00
2023-03-07T11:09:23.137Z,11.80
2023-03-07T11:12:10.815Z,11.60
2023-03-07T11:15:17.735Z,11.50
2023-03-07T11:17:46.665Z,11.40
2023-03-07T11:20:23.151Z,11.30
2023-03-07T11:22:51.350Z,11.20
2023-03-07T11:25:25.156Z,11.10
2023-03-07T11:27:53.129Z,11.20
2023-03-07T11:30:26.230Z,11.20
2023-03-07T11:33:01.488Z,11.00
2023-03-07T11:35:57.032Z,10.80
2023-03-07T11:38:40.375Z,10.80
2023-03-07T11:41:20.736Z,10.90
2023-03-07T11:44:00.722Z,11.10
2023-03-07T11:46:46.200Z,11.30
2023-03-07T11:49:31.810Z,11.40
2023-03-07T11:52:24.051Z,11.50
2023-03-07T11:55:10.858Z,11.50
2023-03-07T11:58:05.210Z,11.40
2023-03-07T12:00:52.358Z,11.20
2023-03-07T12:03:27.256Z,11.20
2023-03-07T12:06:14.387Z,11.20
2023-03-07T12:08:54.452Z,11.30
2023-03-07T12:11:35.363Z,11.30
2023-03-07T12:14:27.172Z,11.30
2023-03-07T12:17:12.316Z,11.30
2023-03-07T12:19:42.239Z,11.20
2023-03-07T12:23:06.280Z,11.20
2023-03-07T12:25:39.179Z,11.20
2023-03-07T12:28:22.270Z,11.00
2023-03-07T12:31:17.345Z,11.00
2023-03-07T12:34:11.819Z,10.90
2023-03-07T12:36:38.387Z,11.00
2023-03-07T12:39:07.785Z,11.10
2023-03-07T12:41:55.288Z,11.00
2023-03-07T12:44:42.855Z,10.90
2023-03-07T12:47:28.146Z,10.90
2023-03-07T12:49:57.451Z,10.80
2023-03-07T12:52:52.213Z,10.80
2023-03-07T12:55:46.533Z,10.90
2023-03-07T12:58:31.982Z,10.90
2023-03-07T13:01:03.704Z,11.00
2023-03-07T13:04:03.415Z,10.90
2023-03-07T13:06:30.723Z,11.00
2023-03-07T13:09:03.827Z,11.00
2023-03-07T13:11:36.474Z,11.00
2023-03-07T13:14:04.443Z,10.90
2023-03-07T13:16:43.019Z,11.00
2023-03-07T13:19:51.901Z,10.90
2023-03-07T13:22:18.363Z,10.80
2023-03-07T13:24:49.103Z,10.80
2023-03-07T13:27:15.605Z,10.80
2023-03-07T13:30:09.948Z,10.80
2023-03-07T13:32:51.557Z,10.80
2023-03-07T13:35:33.414Z,10.70
2023-03-07T13:38:20.876Z,10.50
2023-03-07T13:40:50.640Z,10.40
2023-03-07T13:43:20.277Z,10.40
2023-03-07T13:45:48.164Z,10.40
2023-03-07T13:48:26.606Z,10.40
2023-03-07T13:50:53.988Z,10.50
2023-03-07T13:53:39.374Z,10.50
2023-03-07T13:56:15.119Z,10.40
2023-03-07T13:59:05.222Z,10.40
2023-03-07T14:01:39.271Z,10.40
2023-03-07T14:04:38.362Z,10.30
2023-03-07T14:07:27.907Z,10.40
2023-03-07T14:10:24.966Z,10.40
2023-03-07T14:13:10.783Z,10.40
2023-03-07T14:15:47.634Z,10.30
2023-03-07T14:18:29.811Z,10.10
2023-03-07T14:21:11.616Z,10.00
2023-03-07T14:24:12.392Z,10.00
2023-03-07T14:26:42.700Z,10.00
2023-03-07T14:29:27.436Z,9.90
2023-03-07T14:31:59.526Z,10.00
2023-03-07T14:34:34.193Z,10.00
2023-03-07T14:37:08.687Z,10.10
2023-03-07T14:39:38.374Z,10.00
2023-03-07T14:42:25.054Z,9.90
2023-03-07T14:45:03.519Z,9.90
2023-03-07T14:48:02.381Z,9.80
2023-03-07T14:50:31.059Z,9.80
2023-03-07T14:53:05.371Z,9.70
2023-03-07T14:55:37.612Z,9.70
2023-03-07T14:58:05.208Z,9.60
2023-03-07T15:00:33.878Z,9.60
2023-03-07T15:03:10.932Z,9.60
2023-03-07T15:05:44.951Z,9.50
2023-03-07T15:08:25.112Z,9.40
2023-03-07T15:11:02.235Z,9.40
2023-03-07T15:13:42.866Z,9.40
2023-03-07T15:16:13.967Z,9.40
2023-03-07T15:18:43.530Z,9.30
2023-03-07T15:21:20.783Z,9.10
2023-03-07T15:23:56.290Z,9.10
2023-03-07T15:26:24.678Z,9.00
2023-03-07T15:29:02.344Z,9.00
2023-03-07T15:31:31.684Z,8.80
2023-03-07T15:34:19.891Z,8.80
2023-03-07T15:36:46.404Z,8.60
2023-03-07T15:39:34.274Z,8.50
2023-03-07T15:42:08.311Z,8.50
2023-03-07T15:44:36.363Z,8.50
2023-03-07T15:47:15.090Z,8.50
2023-03-07T15:49:45.598Z,8.60
2023-03-07T15:52:41.737Z,8.60
2023-03-07T15:55:19.722Z,8.60
2023-03-07T15:58:00.077Z,8.60
2023-03-07T16:00:33.044Z,8.60
2023-03-07T16:03:27.006Z,8.50
2023-03-07T16:05:55.644Z,8.60
2023-03-07T16:08:22.658Z,8.50
2023-03-07T16:10:56.058Z,8.50
2023-03-07T16:13:25.641Z,8.40
2023-03-07T16:16:04.656Z,8.40
2023-03-07T16:18:32.345Z,8.30
2023-03-07T16:20:59.544Z,8.20
2023-03-07T16:23:28.676Z,8.10
2023-03-07T16:25:55.467Z,8.10
2023-03-07T16:28:22.065Z,8.00
2023-03-07T16:30:48.658Z,8.00
2023-03-07T16:33:15.343Z,8.00
2023-03-07T16:35:42.104Z,8.00
2023-03-07T16:38:09.352Z,8.00
2023-03-07T16:40:40.658Z,8.00
2023-03-07T16:43:26.552Z,8.00
2023-03-07T16:45:53.142Z,8.00
2023-03-07T16:48:19.706Z,8.00
2023-03-07T16:50:46.249Z,8.00
2023-03-07T16:53:12.771Z,8.00
2023-03-07T16:55:39.526Z,7.90
2023-03-07T16:58:10.508Z,7.80
2023-03-07T17:00:37.085Z,7.80
2023-03-07T17:03:03.828Z,7.70
2023-03-07T17:05:30.518Z,7.70
2023-03-07T17:07:58.734Z,7.70
2023-03-07T17:10:26.919Z,7.70
2023-03-07T17:12:55.917Z,7.60
2023-03-07T17:15:26.286Z,7.60
2023-03-07T17:17:53.135Z,7.60
2023-03-07T17:20:20.333Z,7.50
2023-03-07T17:22:46.957Z,7.50
2023-03-07T17:25:13.818Z,7.50
2023-03-07T17:28:03.808Z,7.40
2023-03-07T17:30:31.299Z,7.40
2023-03-07T17:32:58.311Z,7.40
2023-03-07T17:35:25.268Z,7.40
2023-03-07T17:37:55.457Z,7.40
2023-03-07T17:40:22.220Z,7.40
2023-03-07T17:42:50.912Z,7.40
2023-03-07T17:45:18.308Z,7.40
2023-03-07T17:47:45.011Z,7.30
2023-03-07T17:50:12.313Z,7.30
2023-03-07T17:52:39.025Z,7.40
2023-03-07T17:55:09.644Z,7.40
2023-03-07T17:57:36.677Z,7.40
2023-03-07T18:00:06.815Z,7.30
2023-03-07T18:02:34.973Z,7.20
2023-03-07T18:05:01.536Z,7.20
2023-03-07T18:07:28.117Z,7.20
2023-03-07T18:10:07.098Z,7.20
2023-03-07T18:12:34.027Z,7.20
2023-03-07T18:15:00.542Z,7.20
2023-03-07T18:17:31.377Z,7.20
2023-03-07T18:20:07.973Z,7.20
2023-03-07T18:22:34.511Z,7.20
2023-03-07T18:25:01.196Z,7.10
2023-03-07T18:27:27.754Z,7.10
2023-03-07T18:29:54.307Z,7.10
2023-03-07T18:32:21.019Z,7.00
2023-03-07T18:34:47.814Z,7.00
2023-03-07T18:37:16.113Z,7.00
2023-03-07T18:39:42.659Z,7.00
2023-03-07T18:42:09.377Z,7.00
2023-03-07T18:44:39.554Z,7.00
2023-03-07T18:47:06.345Z,6.90
2023-03-07T18:49:33.011Z,6.90
2023-03-07T18:51:59.605Z,6.90
2023-03-07T18:54:26.278Z,6.90
2023-03-07T18:56:52.851Z,6.90
2023-03-07T18:59:19.452Z,6.90
2023-03-07T19:01:50.092Z,6.80
2023-03-07T19:04:17.631Z,6.80
2023-03-07T19:06:47.255Z,6.80
2023-03-07T19:09:18.997Z,6.80
2023-03-07T19:11:46.162Z,6.80
2023-03-07T19:14:12.862Z,6.70
2023-03-07T19:16:39.581Z,6.70
2023-03-07T19:19:06.248Z,6.70
2023-03-07T19:21:33.005Z,6.80
2023-03-07T19:24:01.401Z,6.80
2023-03-07T19:26:28.300Z,6.80
2023-03-07T19:28:56.506Z,6.80
2023-03-07T19:31:27.603Z,6.80
2023-03-07T19:33:54.460Z,6.90
2023-03-07T19:36:25.001Z,6.90
2023-03-07T19:38:55.293Z,6.90
2023-03-07T19:41:24.451Z,6.90
2023-03-07T19:43:51.665Z,6.90
2023-03-07T19:46:20.077Z,6.90
2023-03-07T19:48:49.159Z,6.90
2023-03-07T19:51:21.290Z,6.80
2023-03-07T19:53:48.376Z,6.80
2023-03-07T19:56:19.760Z,6.80
2023-03-07T19:58:46.784Z,6.80
2023-03-07T20:01:18.667Z,6.70
2023-03-07T20:03:45.517Z,6.70
2023-03-07T20:06:18.743Z,6.70
2023-03-07T20:08:54.577Z,6.70
2023-03-07T20:11:27.644Z,6.70
2023-03-07T20:13:55.877Z,6.70
2023-03-07T20:16:23.345Z,6.70
2023-03-07T20:18:52.123Z,6.80
2023-03-07T20:21:19.743Z,6.80
2023-03-07T20:23:47.505Z,6.80
2023-03-07T20:26:23.044Z,6.70
2023-03-07T20:28:50.835Z,6.70
2023-03-07T20:31:18.721Z,6.80
2023-03-07T20:33:46.488Z,6.80
2023-03-07T20:36:18.186Z,6.80
2023-03-07T20:38:49.093Z,6.80
2023-03-07T20:41:16.928Z,6.80
2023-03-07T20:43:43.698Z,6.80
2023-03-07T20:46:13.249Z,6.70
2023-03-07T20:48:40.627Z,6.70
2023-03-07T20:51:18.784Z,6.70
2023-03-07T20:53:46.717Z,6.70
2023-03-07T20:56:13.667Z,6.70
2023-03-07T20:58:40.951Z,6.70
2023-03-07T21:01:07.534Z,6.70
2023-03-07T21:03:34.104Z,6.70
2023-03-07T21:06:02.216Z,6.70
2023-03-07T21:08:30.597Z,6.70
2023-03-07T21:11:10.767Z,6.70
2023-03-07T21:13:39.565Z,6.70
2023-03-07T21:16:12.518Z,6.80
2023-03-07T21:18:39.378Z,6.80
2023-03-07T21:21:08.730Z,6.70
2023-03-07T21:23:35.899Z,6.80
2023-03-07T21:26:05.436Z,6.80
2023-03-07T21:28:32.846Z,6.80
2023-03-07T21:31:23.793Z,6.80
2023-03-07T21:34:14.558Z,6.70
2023-03-07T21:36:41.125Z,6.70
2023-03-07T21:39:09.642Z,6.70
2023-03-07T21:41:37.069Z,6.80
2023-03-07T21:44:04.027Z,6.70
2023-03-07T21:46:30.971Z,6.80
2023-03-07T21:49:01.285Z,6.70
2023-03-07T21:51:27.885Z,6.70
2023-03-07T21:53:54.404Z,6.70
2023-03-07T21:56:23.285Z,6.70
2023-03-07T21:58:51.213Z,6.70
2023-03-07T22:01:26.665Z,6.70
2023-03-07T22:03:54.876Z,6.70
2023-03-07T22:06:24.360Z,6.70
2023-03-07T22:08:51.127Z,6.70
2023-03-07T22:11:17.668Z,6.70
2023-03-07T22:13:44.339Z,6.70
2023-03-07T22:16:14.323Z,6.70
2023-03-07T22:18:41.108Z,6.60
2023-03-07T22:21:13.882Z,6.60
2023-03-07T22:23:40.946Z,6.60
2023-03-07T22:26:09.399Z,6.60
2023-03-07T22:28:36.116Z,6.60
2023-03-07T22:31:05.338Z,6.60
2023-03-07T22:33:32.379Z,6.60
2023-03-07T22:36:01.072Z,6.60
2023-03-07T22:38:29.011Z,6.60
2023-03-07T22:41:22.419Z,6.60
2023-03-07T22:43:49.018Z,6.60
2023-03-07T22:46:15.635Z,6.60
2023-03-07T22:48:42.213Z,6.60
2023-03-07T22:51:14.047Z,6.60
2023-03-07T22:53:40.689Z,6.70
2023-03-07T22:56:17.318Z,6.70
2023-03-07T22:58:44.361Z,6.70
2023-03-07T23:01:23.058Z,6.60
2023-03-07T23:03:51.719Z,6.60
2023-03-07T23:06:18.965Z,6.60
2023-03-07T23:08:50.912Z,6.60
2023-03-07T23:11:19.002Z,6.60
2023-03-07T23:13:45.858Z,6.60
2023-03-07T23:16:18.413Z,6.60
2023-03-07T23:18:46.052Z,6.60
2023-03-07T23:21:15.467Z,6.70
2023-03-07T23:23:42.285Z,6.60
2023-03-07T23:26:08.949Z,6.60
2023-03-07T23:28:35.726Z,6.60
2023-03-07T23:31:02.346Z,6.50
2023-03-07T23:33:28.911Z,6.50
2023-03-07T23:35:59.464Z,6.50
2023-03-07T23:38:26.014Z,6.40
2023-03-07T23:40:52.519Z,6.40
2023-03-07T23:43:19.058Z,6.50
2023-03-07T23:45:45.612Z,6.50
2023-03-07T23:48:12.183Z,6.50
2023-03-07T23:50:38.704Z,6.50
2023-03-07T23:53:05.271Z,6.50
2023-03-07T23:55:31.836Z,6.50
2023-03-07T23:57:58.355Z,6.50
